sensor_id;sensor_type;location;lat;lon;timestamp;pressure;altitude;pressure_sealevel;temperature;humidity
21182;BME280;10749;46.296;7.524;2023-03-05T00:00:49;94908.28;;;6.68;40.68
21182;BME280;10749;46.296;7.524;2023-03-05T00:03:15;94902.03;;;6.69;40.63
21182;BME280;10749;46.296;7.524;2023-03-05T00:05:40;94906.56;;;6.59;40.72
21182;BME280;10749;46.296;7.524;2023-03-05T00:08:05;94901.31;;;6.59;40.83
21182;BME280;10749;46.296;7.524;2023-03-05T00:10:31;94902.81;;;6.61;40.80
21182;BME280;10749;46.296;7.524;2023-03-05T00:12:56;94900.31;;;6.60;40.97
21182;BME280;10749;46.296;7.524;2023-03-05T00:15:21;94895.06;;;6.60;41.06
21182;BME280;10749;46.296;7.524;2023-03-05T00:17:46;94909.03;;;6.60;41.05
21182;BME280;10749;46.296;7.524;2023-03-05T00:20:12;94904.25;;;6.56;41.34
21182;BME280;10749;46.296;7.524;2023-03-05T00:22:37;94905.91;;;6.57;41.07
21182;BME280;10749;46.296;7.524;2023-03-05T00:25:03;94905.16;;;6.46;41.15
21182;BME280;10749;46.296;7.524;2023-03-05T00:27:29;94903.88;;;6.50;40.91
21182;BME280;10749;46.296;7.524;2023-03-05T00:29:55;94902.69;;;6.45;41.04
21182;BME280;10749;46.296;7.524;2023-03-05T00:32:20;94907.78;;;6.46;41.39
21182;BME280;10749;46.296;7.524;2023-03-05T00:34:45;94906.00;;;6.47;41.33
21182;BME280;10749;46.296;7.524;2023-03-05T00:37:11;94903.53;;;6.45;41.17
21182;BME280;10749;46.296;7.524;2023-03-05T00:39:36;94911.41;;;6.45;41.39
21182;BME280;10749;46.296;7.524;2023-03-05T00:42:01;94906.31;;;6.44;41.47
21182;BME280;10749;46.296;7.524;2023-03-05T00:44:27;94902.13;;;6.33;41.50
21182;BME280;10749;46.296;7.524;2023-03-05T00:46:52;94904.38;;;6.28;41.29
21182;BME280;10749;46.296;7.524;2023-03-05T00:49:17;94908.94;;;6.26;41.23
21182;BME280;10749;46.296;7.524;2023-03-05T00:51:43;94913.38;;;6.26;41.43
21182;BME280;10749;46.296;7.524;2023-03-05T00:54:08;94908.66;;;6.29;41.57
21182;BME280;10749;46.296;7.524;2023-03-05T00:56:33;94911.56;;;6.26;41.64
21182;BME280;10749;46.296;7.524;2023-03-05T00:58:58;94912.03;;;6.22;41.81
21182;BME280;10749;46.296;7.524;2023-03-05T01:01:24;94900.69;;;6.21;41.68
21182;BME280;10749;46.296;7.524;2023-03-05T01:03:50;94897.09;;;6.22;41.69
21182;BME280;10749;46.296;7.524;2023-03-05T01:06:15;94899.50;;;6.16;41.68
21182;BME280;10749;46.296;7.524;2023-03-05T01:08:41;94901.31;;;6.15;42.04
21182;BME280;10749;46.296;7.524;2023-03-05T01:11:08;94905.88;;;6.13;41.90
21182;BME280;10749;46.296;7.524;2023-03-05T01:13:35;94899.97;;;6.11;41.94
21182;BME280;10749;46.296;7.524;2023-03-05T01:16:01;94900.94;;;6.10;42.09
21182;BME280;10749;46.296;7.524;2023-03-05T01:18:27;94896.63;;;6.09;42.01
21182;BME280;10749;46.296;7.524;2023-03-05T01:20:52;94893.75;;;6.12;41.71
21182;BME280;10749;46.296;7.524;2023-03-05T01:23:18;94893.03;;;6.10;41.75
21182;BME280;10749;46.296;7.524;2023-03-05T01:25:43;94888.03;;;5.99;41.85
21182;BME280;10749;46.296;7.524;2023-03-05T01:28:09;94884.88;;;5.95;41.92
21182;BME280;10749;46.296;7.524;2023-03-05T01:30:34;94884.72;;;5.97;41.92
21182;BME280;10749;46.296;7.524;2023-03-05T01:32:59;94879.09;;;5.92;42.23
21182;BME280;10749;46.296;7.524;2023-03-05T01:35:25;94880.53;;;5.86;42.06
21182;BME280;10749;46.296;7.524;2023-03-05T01:37:51;94874.72;;;5.83;42.05
21182;BME280;10749;46.296;7.524;2023-03-05T01:40:20;94878.63;;;5.79;42.23
21182;BME280;10749;46.296;7.524;2023-03-05T01:42:55;94874.19;;;5.79;41.66
21182;BME280;10749;46.296;7.524;2023-03-05T01:45:21;94877.78;;;5.78;41.42
21182;BME280;10749;46.296;7.524;2023-03-05T01:47:46;94874.78;;;5.73;41.88
21182;BME280;10749;46.296;7.524;2023-03-05T01:50:16;94869.00;;;5.70;41.95
21182;BME280;10749;46.296;7.524;2023-03-05T01:52:48;94871.19;;;5.74;41.98
21182;BME280;10749;46.296;7.524;2023-03-05T01:55:21;94869.31;;;5.67;42.26
21182;BME280;10749;46.296;7.524;2023-03-05T01:57:54;94865.16;;;5.64;42.37
21182;BME280;10749;46.296;7.524;2023-03-05T02:00:24;94866.00;;;5.65;42.05
21182;BME280;10749;46.296;7.524;2023-03-05T02:02:51;94862.53;;;5.64;42.21
21182;BME280;10749;46.296;7.524;2023-03-05T02:05:24;94864.13;;;5.75;42.28
21182;BME280;10749;46.296;7.524;2023-03-05T02:07:55;94850.91;;;5.84;42.51
21182;BME280;10749;46.296;7.524;2023-03-05T02:10:36;94858.09;;;5.92;42.58
21182;BME280;10749;46.296;7.524;2023-03-05T02:13:07;94849.84;;;5.87;42.68
21182;BME280;10749;46.296;7.524;2023-03-05T02:15:34;94855.47;;;5.92;42.66
21182;BME280;10749;46.296;7.524;2023-03-05T02:18:00;94855.53;;;6.00;42.55
21182;BME280;10749;46.296;7.524;2023-03-05T02:20:28;94856.88;;;6.04;42.73
21182;BME280;10749;46.296;7.524;2023-03-05T02:22:54;94846.44;;;6.12;42.64
21182;BME280;10749;46.296;7.524;2023-03-05T02:25:25;94848.06;;;6.13;42.65
21182;BME280;10749;46.296;7.524;2023-03-05T02:27:56;94850.19;;;6.10;42.76
21182;BME280;10749;46.296;7.524;2023-03-05T02:30:24;94848.31;;;6.02;43.03
21182;BME280;10749;46.296;7.524;2023-03-05T02:32:49;94839.00;;;6.08;42.86
21182;BME280;10749;46.296;7.524;2023-03-05T02:35:14;94831.72;;;6.01;43.14
21182;BME280;10749;46.296;7.524;2023-03-05T02:37:40;94832.22;;;6.05;43.02
21182;BME280;10749;46.296;7.524;2023-03-05T02:40:08;94830.28;;;6.07;42.99
21182;BME280;10749;46.296;7.524;2023-03-05T02:42:33;94832.91;;;6.07;43.24
21182;BME280;10749;46.296;7.524;2023-03-05T02:45:00;94830.81;;;6.11;42.92
21182;BME280;10749;46.296;7.524;2023-03-05T02:47:26;94820.16;;;6.12;42.74
21182;BME280;10749;46.296;7.524;2023-03-05T02:49:52;94822.78;;;6.12;43.18
21182;BME280;10749;46.296;7.524;2023-03-05T02:52:17;94819.53;;;6.18;43.23
21182;BME280;10749;46.296;7.524;2023-03-05T02:54:42;94816.91;;;6.18;43.16
21182;BME280;10749;46.296;7.524;2023-03-05T02:57:08;94810.81;;;6.18;43.36
21182;BME280;10749;46.296;7.524;2023-03-05T02:59:33;94808.38;;;6.16;43.68
21182;BME280;10749;46.296;7.524;2023-03-05T03:01:58;94804.13;;;6.23;43.09
21182;BME280;10749;46.296;7.524;2023-03-05T03:04:23;94807.06;;;6.20;42.40
21182;BME280;10749;46.296;7.524;2023-03-05T03:06:49;94806.72;;;6.15;42.51
21182;BME280;10749;46.296;7.524;2023-03-05T03:09:15;94802.06;;;6.09;42.72
21182;BME280;10749;46.296;7.524;2023-03-05T03:11:40;94804.34;;;6.04;42.64
21182;BME280;10749;46.296;7.524;2023-03-05T03:14:05;94795.84;;;5.92;42.94
21182;BME280;10749;46.296;7.524;2023-03-05T03:16:32;94797.41;;;5.85;43.16
21182;BME280;10749;46.296;7.524;2023-03-05T03:18:57;94794.13;;;5.83;43.38
21182;BME280;10749;46.296;7.524;2023-03-05T03:21:24;94795.94;;;5.83;43.26
21182;BME280;10749;46.296;7.524;2023-03-05T03:23:51;94793.97;;;5.85;43.33
21182;BME280;10749;46.296;7.524;2023-03-05T03:26:16;94789.53;;;5.85;43.51
21182;BME280;10749;46.296;7.524;2023-03-05T03:28:42;94787.16;;;5.92;43.23
21182;BME280;10749;46.296;7.524;2023-03-05T03:31:07;94792.78;;;5.97;43.00
21182;BME280;10749;46.296;7.524;2023-03-05T03:33:33;94778.28;;;5.93;43.21
21182;BME280;10749;46.296;7.524;2023-03-05T03:35:58;94783.09;;;5.97;43.42
21182;BME280;10749;46.296;7.524;2023-03-05T03:38:23;94790.31;;;5.95;43.57
21182;BME280;10749;46.296;7.524;2023-03-05T03:40:48;94788.78;;;5.93;43.47
21182;BME280;10749;46.296;7.524;2023-03-05T03:43:14;94781.09;;;5.91;43.67
21182;BME280;10749;46.296;7.524;2023-03-05T03:45:41;94790.59;;;5.92;43.14
21182;BME280;10749;46.296;7.524;2023-03-05T03:48:07;94782.19;;;5.89;43.13
21182;BME280;10749;46.296;7.524;2023-03-05T03:50:32;94782.78;;;5.83;43.07
21182;BME280;10749;46.296;7.524;2023-03-05T03:52:57;94791.13;;;5.78;43.28
21182;BME280;10749;46.296;7.524;2023-03-05T03:55:22;94800.81;;;5.78;43.44
21182;BME280;10749;46.296;7.524;2023-03-05T03:57:48;94791.56;;;5.74;43.35
21182;BME280;10749;46.296;7.524;2023-03-05T04:00:13;94793.50;;;5.72;43.45
21182;BME280;10749;46.296;7.524;2023-03-05T04:02:39;94793.63;;;5.62;43.80
21182;BME280;10749;46.296;7.524;2023-03-05T04:05:05;94796.38;;;5.61;43.93
21182;BME280;10749;46.296;7.524;2023-03-05T04:07:30;94788.50;;;5.61;44.01
21182;BME280;10749;46.296;7.524;2023-03-05T04:09:55;94796.06;;;5.64;43.74
21182;BME280;10749;46.296;7.524;2023-03-05T04:12:21;94789.78;;;5.56;43.61
21182;BME280;10749;46.296;7.524;2023-03-05T04:14:47;94786.78;;;5.51;44.00
21182;BME280;10749;46.296;7.524;2023-03-05T04:17:13;94784.78;;;5.45;43.70
21182;BME280;10749;46.296;7.524;2023-03-05T04:19:40;94786.03;;;5.41;44.04
21182;BME280;10749;46.296;7.524;2023-03-05T04:22:09;94783.56;;;5.40;44.02
21182;BME280;10749;46.296;7.524;2023-03-05T04:24:34;94777.56;;;5.30;44.14
21182;BME280;10749;46.296;7.524;2023-03-05T04:27:00;94787.16;;;5.21;43.88
21182;BME280;10749;46.296;7.524;2023-03-05T04:29:25;94776.28;;;5.16;43.81
21182;BME280;10749;46.296;7.524;2023-03-05T04:31:51;94777.25;;;5.15;43.70
21182;BME280;10749;46.296;7.524;2023-03-05T04:34:16;94777.16;;;5.07;43.99
21182;BME280;10749;46.296;7.524;2023-03-05T04:36:41;94784.06;;;5.08;44.20
21182;BME280;10749;46.296;7.524;2023-03-05T04:39:07;94778.81;;;5.08;44.04
21182;BME280;10749;46.296;7.524;2023-03-05T04:41:32;94779.13;;;5.05;43.91
21182;BME280;10749;46.296;7.524;2023-03-05T04:43:57;94781.03;;;5.03;43.96
21182;BME280;10749;46.296;7.524;2023-03-05T04:46:22;94777.47;;;5.04;43.94
21182;BME280;10749;46.296;7.524;2023-03-05T04:48:48;94776.94;;;5.00;43.98
21182;BME280;10749;46.296;7.524;2023-03-05T04:51:13;94776.41;;;4.97;44.19
21182;BME280;10749;46.296;7.524;2023-03-05T04:53:38;94779.16;;;4.95;44.00
21182;BME280;10749;46.296;7.524;2023-03-05T04:56:04;94776.09;;;5.00;43.63
21182;BME280;10749;46.296;7.524;2023-03-05T04:58:29;94771.53;;;5.02;43.72
21182;BME280;10749;46.296;7.524;2023-03-05T05:01:00;94772.25;;;4.94;44.01
21182;BME280;10749;46.296;7.524;2023-03-05T05:03:26;94772.41;;;4.93;43.80
21182;BME280;10749;46.296;7.524;2023-03-05T05:05:55;94765.13;;;4.87;44.04
21182;BME280;10749;46.296;7.524;2023-03-05T05:08:21;94765.44;;;4.84;44.27
21182;BME280;10749;46.296;7.524;2023-03-05T05:11:01;94765.72;;;4.81;44.14
21182;BME280;10749;46.296;7.524;2023-03-05T05:13:28;94767.97;;;4.76;44.01
21182;BME280;10749;46.296;7.524;2023-03-05T05:15:54;94782.88;;;4.75;44.26
21182;BME280;10749;46.296;7.524;2023-03-05T05:18:19;94779.56;;;4.73;44.27
21182;BME280;10749;46.296;7.524;2023-03-05T05:20:45;94768.81;;;4.76;43.87
21182;BME280;10749;46.296;7.524;2023-03-05T05:23:11;94770.72;;;4.74;43.85
21182;BME280;10749;46.296;7.524;2023-03-05T05:25:36;94769.50;;;4.69;43.91
21182;BME280;10749;46.296;7.524;2023-03-05T05:28:02;94766.06;;;4.68;44.18
21182;BME280;10749;46.296;7.524;2023-03-05T05:30:27;94774.31;;;4.73;44.21
21182;BME280;10749;46.296;7.524;2023-03-05T05:32:52;94765.78;;;4.71;44.40
21182;BME280;10749;46.296;7.524;2023-03-05T05:35:18;94767.56;;;4.71;44.19
21182;BME280;10749;46.296;7.524;2023-03-05T05:37:43;94758.66;;;4.63;44.40
21182;BME280;10749;46.296;7.524;2023-03-05T05:40:09;94760.56;;;4.61;44.32
21182;BME280;10749;46.296;7.524;2023-03-05T05:42:34;94773.25;;;4.66;44.21
21182;BME280;10749;46.296;7.524;2023-03-05T05:45:00;94767.19;;;4.65;44.30
21182;BME280;10749;46.296;7.524;2023-03-05T05:47:27;94766.34;;;4.65;44.35
21182;BME280;10749;46.296;7.524;2023-03-05T05:49:54;94768.16;;;4.64;44.38
21182;BME280;10749;46.296;7.524;2023-03-05T05:52:19;94773.47;;;4.73;44.01
21182;BME280;10749;46.296;7.524;2023-03-05T05:54:45;94777.09;;;4.72;44.09
21182;BME280;10749;46.296;7.524;2023-03-05T05:57:10;94781.13;;;4.66;44.07
21182;BME280;10749;46.296;7.524;2023-03-05T05:59:35;94777.13;;;4.62;44.40
21182;BME280;10749;46.296;7.524;2023-03-05T06:02:02;94777.09;;;4.72;44.19
21182;BME280;10749;46.296;7.524;2023-03-05T06:04:27;94778.78;;;4.63;44.41
21182;BME280;10749;46.296;7.524;2023-03-05T06:06:53;94778.81;;;4.53;44.43
21182;BME280;10749;46.296;7.524;2023-03-05T06:09:18;94773.88;;;4.50;44.20
21182;BME280;10749;46.296;7.524;2023-03-05T06:11:43;94777.50;;;4.40;44.34
21182;BME280;10749;46.296;7.524;2023-03-05T06:14:10;94778.31;;;4.40;44.61
21182;BME280;10749;46.296;7.524;2023-03-05T06:16:36;94778.31;;;4.40;44.53
21182;BME280;10749;46.296;7.524;2023-03-05T06:19:02;94787.44;;;4.36;44.66
21182;BME280;10749;46.296;7.524;2023-03-05T06:21:30;94778.63;;;4.37;44.57
21182;BME280;10749;46.296;7.524;2023-03-05T06:23:56;94778.91;;;4.34;44.56
21182;BME280;10749;46.296;7.524;2023-03-05T06:26:23;94776.97;;;4.36;44.71
21182;BME280;10749;46.296;7.524;2023-03-05T06:28:51;94775.31;;;4.35;44.70
21182;BME280;10749;46.296;7.524;2023-03-05T06:31:19;94778.03;;;4.43;44.75
21182;BME280;10749;46.296;7.524;2023-03-05T06:33:46;94775.03;;;4.38;44.86
21182;BME280;10749;46.296;7.524;2023-03-05T06:36:14;94771.16;;;4.42;44.40
21182;BME280;10749;46.296;7.524;2023-03-05T06:38:39;94769.09;;;4.36;44.74
21182;BME280;10749;46.296;7.524;2023-03-05T06:41:10;94770.47;;;4.40;44.96
21182;BME280;10749;46.296;7.524;2023-03-05T06:43:40;94765.91;;;4.42;44.90
21182;BME280;10749;46.296;7.524;2023-03-05T06:46:17;94768.09;;;4.47;44.91
21182;BME280;10749;46.296;7.524;2023-03-05T06:48:43;94767.94;;;4.48;44.97
21182;BME280;10749;46.296;7.524;2023-03-05T06:51:16;94770.84;;;4.55;45.19
21182;BME280;10749;46.296;7.524;2023-03-05T06:53:43;94771.59;;;4.65;44.74
21182;BME280;10749;46.296;7.524;2023-03-05T06:56:09;94765.25;;;4.68;43.88
21182;BME280;10749;46.296;7.524;2023-03-05T06:58:34;94762.38;;;4.61;44.14
21182;BME280;10749;46.296;7.524;2023-03-05T07:00:59;94767.78;;;4.59;44.32
21182;BME280;10749;46.296;7.524;2023-03-05T07:03:25;94763.63;;;4.57;44.54
21182;BME280;10749;46.296;7.524;2023-03-05T07:05:50;94762.53;;;4.59;44.56
21182;BME280;10749;46.296;7.524;2023-03-05T07:08:15;94760.56;;;4.61;44.66
21182;BME280;10749;46.296;7.524;2023-03-05T07:10:41;94771.59;;;4.65;44.64
21182;BME280;10749;46.296;7.524;2023-03-05T07:13:08;94759.44;;;4.64;44.78
21182;BME280;10749;46.296;7.524;2023-03-05T07:15:36;94761.94;;;4.65;44.64
21182;BME280;10749;46.296;7.524;2023-03-05T07:18:01;94760.28;;;4.64;44.70
21182;BME280;10749;46.296;7.524;2023-03-05T07:20:26;94755.72;;;4.67;44.95
21182;BME280;10749;46.296;7.524;2023-03-05T07:22:52;94759.09;;;4.77;44.95
21182;BME280;10749;46.296;7.524;2023-03-05T07:25:17;94754.94;;;4.84;45.13
21182;BME280;10749;46.296;7.524;2023-03-05T07:27:46;94755.03;;;4.92;45.27
21182;BME280;10749;46.296;7.524;2023-03-05T07:30:12;94749.63;;;4.93;45.37
21182;BME280;10749;46.296;7.524;2023-03-05T07:32:38;94750.53;;;5.02;45.26
21182;BME280;10749;46.296;7.524;2023-03-05T07:35:03;94748.16;;;5.08;45.17
21182;BME280;10749;46.296;7.524;2023-03-05T07:37:29;94724.69;;;5.07;45.50
21182;BME280;10749;46.296;7.524;2023-03-05T07:39:54;94745.91;;;5.31;45.29
21182;BME280;10749;46.296;7.524;2023-03-05T07:42:20;94753.78;;;5.49;45.62
21182;BME280;10749;46.296;7.524;2023-03-05T07:44:45;94749.50;;;5.66;44.87
21182;BME280;10749;46.296;7.524;2023-03-05T07:47:10;94744.56;;;5.63;45.36
21182;BME280;10749;46.296;7.524;2023-03-05T07:49:35;94749.88;;;5.71;44.38
21182;BME280;10749;46.296;7.524;2023-03-05T07:52:01;94747.91;;;5.73;44.60
21182;BME280;10749;46.296;7.524;2023-03-05T07:54:26;94747.31;;;5.79;44.55
21182;BME280;10749;46.296;7.524;2023-03-05T07:56:53;94751.41;;;5.81;45.03
21182;BME280;10749;46.296;7.524;2023-03-05T07:59:18;94753.31;;;5.89;45.24
21182;BME280;10749;46.296;7.524;2023-03-05T08:01:46;94751.75;;;5.96;45.40
21182;BME280;10749;46.296;7.524;2023-03-05T08:04:11;94745.59;;;6.13;45.68
21182;BME280;10749;46.296;7.524;2023-03-05T08:06:40;94742.72;;;6.24;45.78
21182;BME280;10749;46.296;7.524;2023-03-05T08:09:05;94741.66;;;6.43;45.34
21182;BME280;10749;46.296;7.524;2023-03-05T08:11:31;94744.03;;;6.54;45.93
21182;BME280;10749;46.296;7.524;2023-03-05T08:13:56;94742.94;;;6.73;46.00
21182;BME280;10749;46.296;7.524;2023-03-05T08:16:24;94743.81;;;6.89;45.98
21182;BME280;10749;46.296;7.524;2023-03-05T08:18:53;94739.06;;;6.93;45.72
21182;BME280;10749;46.296;7.524;2023-03-05T08:21:23;94733.16;;;6.99;45.81
21182;BME280;10749;46.296;7.524;2023-03-05T08:23:51;94730.22;;;7.10;45.04
21182;BME280;10749;46.296;7.524;2023-03-05T08:26:19;94717.75;;;7.12;44.89
21182;BME280;10749;46.296;7.524;2023-03-05T08:28:45;94724.00;;;7.19;45.21
21182;BME280;10749;46.296;7.524;2023-03-05T08:31:12;94724.16;;;7.26;45.18
21182;BME280;10749;46.296;7.524;2023-03-05T08:33:38;94724.34;;;7.32;45.00
21182;BME280;10749;46.296;7.524;2023-03-05T08:36:04;94716.28;;;7.42;45.42
21182;BME280;10749;46.296;7.524;2023-03-05T08:38:30;94707.56;;;7.50;45.51
21182;BME280;10749;46.296;7.524;2023-03-05T08:40:55;94710.22;;;7.58;45.76
21182;BME280;10749;46.296;7.524;2023-03-05T08:43:20;94699.34;;;7.69;45.51
21182;BME280;10749;46.296;7.524;2023-03-05T08:45:45;94705.25;;;7.87;45.46
21182;BME280;10749;46.296;7.524;2023-03-05T08:48:12;94701.94;;;8.01;45.38
21182;BME280;10749;46.296;7.524;2023-03-05T08:50:37;94696.50;;;8.03;45.73
21182;BME280;10749;46.296;7.524;2023-03-05T08:53:02;94697.81;;;8.15;45.45
21182;BME280;10749;46.296;7.524;2023-03-05T08:55:28;94693.34;;;8.23;45.67
21182;BME280;10749;46.296;7.524;2023-03-05T08:57:53;94687.06;;;8.32;45.61
21182;BME280;10749;46.296;7.524;2023-03-05T09:00:18;94690.88;;;8.30;45.42
21182;BME280;10749;46.296;7.524;2023-03-05T09:02:44;94682.13;;;8.29;45.46
21182;BME280;10749;46.296;7.524;2023-03-05T09:05:09;94682.44;;;8.26;45.40
21182;BME280;10749;46.296;7.524;2023-03-05T09:07:35;94681.97;;;8.31;45.61
21182;BME280;10749;46.296;7.524;2023-03-05T09:10:03;94678.84;;;8.36;45.33
21182;BME280;10749;46.296;7.524;2023-03-05T09:12:29;94676.84;;;8.38;45.46
21182;BME280;10749;46.296;7.524;2023-03-05T09:14:55;94670.56;;;8.39;45.49
21182;BME280;10749;46.296;7.524;2023-03-05T09:17:21;94669.09;;;8.44;45.50
21182;BME280;10749;46.296;7.524;2023-03-05T09:19:46;94661.28;;;8.51;45.14
21182;BME280;10749;46.296;7.524;2023-03-05T09:22:11;94655.38;;;8.49;45.08
21182;BME280;10749;46.296;7.524;2023-03-05T09:24:37;94651.06;;;8.56;45.15
21182;BME280;10749;46.296;7.524;2023-03-05T09:27:02;94648.84;;;8.67;44.78
21182;BME280;10749;46.296;7.524;2023-03-05T09:29:28;94648.84;;;8.67;45.15
21182;BME280;10749;46.296;7.524;2023-03-05T09:31:55;94638.56;;;8.80;45.00
21182;BME280;10749;46.296;7.524;2023-03-05T09:34:21;94633.06;;;8.90;45.20
21182;BME280;10749;46.296;7.524;2023-03-05T09:36:46;94628.53;;;8.99;45.02
21182;BME280;10749;46.296;7.524;2023-03-05T09:39:12;94628.84;;;9.04;44.99
21182;BME280;10749;46.296;7.524;2023-03-05T09:44:24;94628.63;;;9.13;44.60
21182;BME280;10749;46.296;7.524;2023-03-05T09:47:13;94617.00;;;9.22;44.90
21182;BME280;10749;46.296;7.524;2023-03-05T09:55:13;94602.16;;;9.59;44.44
21182;BME280;10749;46.296;7.524;2023-03-05T09:57:41;94608.38;;;9.66;44.66
21182;BME280;10749;46.296;7.524;2023-03-05T10:00:29;94608.19;;;9.82;44.33
21182;BME280;10749;46.296;7.524;2023-03-05T10:02:58;94595.09;;;10.03;44.60
21182;BME280;10749;46.296;7.524;2023-03-05T10:08:37;94592.50;;;10.18;44.12
21182;BME280;10749;46.296;7.524;2023-03-05T10:11:27;94587.00;;;10.19;44.12
21182;BME280;10749;46.296;7.524;2023-03-05T10:13:54;94586.19;;;10.34;44.04
21182;BME280;10749;46.296;7.524;2023-03-05T10:27:47;94552.41;;;11.07;43.43
21182;BME280;10749;46.296;7.524;2023-03-05T10:35:39;94546.16;;;11.43;43.30
21182;BME280;10749;46.296;7.524;2023-03-05T10:40:54;94533.06;;;11.35;43.92
21182;BME280;10749;46.296;7.524;2023-03-05T10:43:24;94531.97;;;11.50;43.46
21182;BME280;10749;46.296;7.524;2023-03-05T10:45:53;94530.19;;;11.57;43.57
21182;BME280;10749;46.296;7.524;2023-03-05T10:48:42;94530.47;;;11.69;43.62
21182;BME280;10749;46.296;7.524;2023-03-05T10:51:14;94520.59;;;11.84;43.35
21182;BME280;10749;46.296;7.524;2023-03-05T10:53:55;94507.47;;;12.04;43.41
21182;BME280;10749;46.296;7.524;2023-03-05T10:56:24;94507.72;;;12.16;42.88
21182;BME280;10749;46.296;7.524;2023-03-05T10:58:50;94500.06;;;12.34;43.25
21182;BME280;10749;46.296;7.524;2023-03-05T11:04:25;94495.00;;;12.52;42.73
21182;BME280;10749;46.296;7.524;2023-03-05T11:06:43;94493.22;;;12.72;42.68
21182;BME280;10749;46.296;7.524;2023-03-05T11:09:20;94488.97;;;12.91;42.55
21182;BME280;10749;46.296;7.524;2023-03-05T11:14:35;94474.72;;;13.25;42.20
21182;BME280;10749;46.296;7.524;2023-03-05T11:17:03;94457.31;;;13.42;42.42
21182;BME280;10749;46.296;7.524;2023-03-05T11:19:46;94454.06;;;13.53;42.00
21182;BME280;10749;46.296;7.524;2023-03-05T11:24:44;94440.28;;;13.76;42.37
21182;BME280;10749;46.296;7.524;2023-03-05T11:27:38;94432.94;;;13.58;42.46
21182;BME280;10749;46.296;7.524;2023-03-05T11:30:20;94427.25;;;13.48;42.03
21182;BME280;10749;46.296;7.524;2023-03-05T11:32:46;94421.09;;;13.61;41.72
21182;BME280;10749;46.296;7.524;2023-03-05T11:35:41;94431.03;;;13.92;41.73
21182;BME280;10749;46.296;7.524;2023-03-05T11:38:20;94417.91;;;14.03;41.29
21182;BME280;10749;46.296;7.524;2023-03-05T11:40:46;94402.03;;;14.28;41.40
21182;BME280;10749;46.296;7.524;2023-03-05T11:43:17;94402.66;;;14.23;41.36
21182;BME280;10749;46.296;7.524;2023-03-05T11:45:43;94391.19;;;14.23;41.35
21182;BME280;10749;46.296;7.524;2023-03-05T11:48:27;94392.19;;;14.35;40.58
21182;BME280;10749;46.296;7.524;2023-03-05T11:50:57;94390.44;;;14.54;40.27
21182;BME280;10749;46.296;7.524;2023-03-05T11:53:30;94378.88;;;14.66;40.24
21182;BME280;10749;46.296;7.524;2023-03-05T11:56:03;94372.59;;;14.86;40.12
21182;BME280;10749;46.296;7.524;2023-03-05T11:58:43;94359.81;;;14.94;40.28
21182;BME280;10749;46.296;7.524;2023-03-05T12:01:16;94357.00;;;14.89;40.30
21182;BME280;10749;46.296;7.524;2023-03-05T12:03:42;94351.75;;;15.01;40.20
21182;BME280;10749;46.296;7.524;2023-03-05T12:08:50;94345.47;;;15.38;40.09
21182;BME280;10749;46.296;7.524;2023-03-05T12:11:20;94340.25;;;15.25;40.64
21182;BME280;10749;46.296;7.524;2023-03-05T12:13:51;94334.63;;;15.33;39.90
21182;BME280;10749;46.296;7.524;2023-03-05T12:16:33;94331.13;;;15.57;39.81
21182;BME280;10749;46.296;7.524;2023-03-05T12:19:26;94316.16;;;15.75;39.15
21182;BME280;10749;46.296;7.524;2023-03-05T12:21:55;94319.38;;;15.95;39.44
21182;BME280;10749;46.296;7.524;2023-03-05T12:29:49;94298.81;;;15.84;37.75
21182;BME280;10749;46.296;7.524;2023-03-05T12:34:49;94291.00;;;16.00;38.35
21182;BME280;10749;46.296;7.524;2023-03-05T12:39:48;94278.22;;;16.32;38.12
21182;BME280;10749;46.296;7.524;2023-03-05T12:42:43;94273.13;;;16.42;37.79
21182;BME280;10749;46.296;7.524;2023-03-05T12:47:36;94269.44;;;16.43;37.36
21182;BME280;10749;46.296;7.524;2023-03-05T12:50:03;94255.56;;;16.23;37.53
21182;BME280;10749;46.296;7.524;2023-03-05T12:52:32;94255.16;;;16.08;37.35
21182;BME280;10749;46.296;7.524;2023-03-05T12:55:17;94247.75;;;16.10;37.35
21182;BME280;10749;46.296;7.524;2023-03-05T12:57:45;94245.81;;;16.29;37.09
21182;BME280;10749;46.296;7.524;2023-03-05T13:00:24;94252.16;;;16.57;37.15
21182;BME280;10749;46.296;7.524;2023-03-05T13:02:54;94236.75;;;16.83;36.75
21182;BME280;10749;46.296;7.524;2023-03-05T13:05:29;94230.44;;;17.12;36.48
21182;BME280;10749;46.296;7.524;2023-03-05T13:08:10;94220.06;;;17.27;36.74
21182;BME280;10749;46.296;7.524;2023-03-05T13:10:35;94226.13;;;17.34;36.47
21182;BME280;10749;46.296;7.524;2023-03-05T13:13:01;94223.19;;;17.47;36.24
21182;BME280;10749;46.296;7.524;2023-03-05T13:15:27;94218.56;;;17.43;35.71
21182;BME280;10749;46.296;7.524;2023-03-05T13:17:56;94217.19;;;17.17;35.36
21182;BME280;10749;46.296;7.524;2023-03-05T13:28:23;94196.97;;;16.98;35.43
21182;BME280;10749;46.296;7.524;2023-03-05T13:31:00;94209.41;;;17.04;35.51
21182;BME280;10749;46.296;7.524;2023-03-05T13:33:32;94197.63;;;17.28;35.44
21182;BME280;10749;46.296;7.524;2023-03-05T13:35:58;94199.00;;;17.42;34.88
21182;BME280;10749;46.296;7.524;2023-03-05T13:38:32;94207.41;;;17.34;35.04
21182;BME280;10749;46.296;7.524;2023-03-05T13:43:47;94188.63;;;16.83;33.03
21182;BME280;10749;46.296;7.524;2023-03-05T13:46:13;94182.56;;;16.99;34.15
21182;BME280;10749;46.296;7.524;2023-03-05T13:48:46;94179.09;;;16.87;33.28
21182;BME280;10749;46.296;7.524;2023-03-05T13:51:11;94174.06;;;17.02;32.82
21182;BME280;10749;46.296;7.524;2023-03-05T13:53:38;94177.53;;;17.26;33.69
21182;BME280;10749;46.296;7.524;2023-03-05T13:56:06;94173.31;;;17.41;32.11
21182;BME280;10749;46.296;7.524;2023-03-05T13:58:45;94171.78;;;17.05;32.33
21182;BME280;10749;46.296;7.524;2023-03-05T14:03:48;94164.72;;;17.96;33.31
21182;BME280;10749;46.296;7.524;2023-03-05T14:06:18;94157.38;;;18.36;32.67
21182;BME280;10749;46.296;7.524;2023-03-05T14:08:52;94157.28;;;18.31;32.30
21182;BME280;10749;46.296;7.524;2023-03-05T14:11:18;94149.09;;;18.38;32.35
21182;BME280;10749;46.296;7.524;2023-03-05T14:13:45;94155.63;;;18.59;32.48
21182;BME280;10749;46.296;7.524;2023-03-05T14:16:13;94142.91;;;18.04;31.62
21182;BME280;10749;46.296;7.524;2023-03-05T14:18:52;94141.13;;;18.26;32.08